createdAt,value
2018-05-02T00:01:15.958Z,85.58
2018-05-02T00:02:15.497Z,85.49
2018-05-02T00:04:10.875Z,85.30
2018-05-02T00:05:09.356Z,85.49
2018-05-02T00:07:02.775Z,85.68
2018-05-02T00:08:02.640Z,85.49
2018-05-02T00:09:56.108Z,85.96
2018-05-02T00:10:57.023Z,85.86
2018-05-02T00:12:50.359Z,85.86
2018-05-02T00:13:49.479Z,85.68
2018-05-02T00:15:42.860Z,85.49
2018-05-02T00:16:42.364Z,85.39
2018-05-02T00:18:36.398Z,86.05
2018-05-02T00:19:35.708Z,85.68
2018-05-02T00:21:29.530Z,85.96
2018-05-02T00:22:30.040Z,85.49
2018-05-02T00:24:22.898Z,85.58
2018-05-02T00:25:22.408Z,86.05
2018-05-02T00:27:16.266Z,86.24
2018-05-02T00:28:15.874Z,85.86
2018-05-02T00:30:11.252Z,86.34
2018-05-02T00:31:09.810Z,86.24
2018-05-02T00:33:05.119Z,86.43
2018-05-02T00:34:04.898Z,86.05
2018-05-02T00:35:56.896Z,86.82
2018-05-02T00:36:56.571Z,86.63
2018-05-02T00:38:51.294Z,86.43
2018-05-02T00:39:51.191Z,86.34
2018-05-02T00:41:44.776Z,86.82
2018-05-02T00:42:43.760Z,87.01
2018-05-02T00:44:37.545Z,86.91
2018-05-02T00:45:37.183Z,86.82
2018-05-02T00:47:31.464Z,87.19
2018-05-02T00:48:30.405Z,87.10
2018-05-02T00:50:25.455Z,86.72
2018-05-02T00:51:23.718Z,86.82
2018-05-02T00:53:17.526Z,86.53
2018-05-02T00:54:17.786Z,87.19
2018-05-02T00:56:10.585Z,87.67
2018-05-02T00:57:10.436Z,87.34
2018-05-02T00:59:04.798Z,87.62
2018-05-02T01:00:04.549Z,87.19
2018-05-02T01:01:57.226Z,87.29
2018-05-02T01:02:59.727Z,87.43
2018-05-02T01:04:50.876Z,87.34
2018-05-02T01:05:51.058Z,87.24
2018-05-02T01:07:44.276Z,87.38
2018-05-02T01:08:43.839Z,87.57
2018-05-02T01:10:39.187Z,88.20
2018-05-02T01:11:37.777Z,88.01
2018-05-02T01:13:31.517Z,87.95
2018-05-02T01:14:31.458Z,87.91
2018-05-02T01:16:24.899Z,87.43
2018-05-02T01:17:24.507Z,87.24
2018-05-02T01:19:17.864Z,87.24
2018-05-02T01:20:17.816Z,87.34
2018-05-02T01:22:11.608Z,87.72
2018-05-02T01:23:11.154Z,87.95
2018-05-02T01:25:04.927Z,88.29
2018-05-02T01:26:04.550Z,88.10
2018-05-02T01:27:58.085Z,88.57
2018-05-02T01:28:57.912Z,88.48
2018-05-02T01:30:52.816Z,88.10
2018-05-02T01:31:51.256Z,87.82
2018-05-02T01:33:45.201Z,87.91
2018-05-02T01:34:44.593Z,88.20
2018-05-02T01:36:38.917Z,88.57
2018-05-02T01:37:37.968Z,88.86
2018-05-02T01:39:31.754Z,88.86
2018-05-02T01:40:31.742Z,88.76
2018-05-02T01:42:25.098Z,88.67
2018-05-02T01:43:25.027Z,88.10
2018-05-02T01:45:18.907Z,88.29
2018-05-02T01:46:18.056Z,88.43
2018-05-02T01:48:11.848Z,88.01
2018-05-02T01:49:12.045Z,88.39
2018-05-02T01:51:05.193Z,88.48
2018-05-02T01:52:04.939Z,88.95
2018-05-02T01:53:58.602Z,88.57
2018-05-02T01:54:59.043Z,88.48
2018-05-02T01:56:51.795Z,88.67
2018-05-02T01:57:51.395Z,88.20
2018-05-02T01:59:45.367Z,88.20
2018-05-02T02:00:44.778Z,88.57
2018-05-02T02:02:40.032Z,88.20
2018-05-02T02:03:38.141Z,87.62
2018-05-02T02:05:31.905Z,88.01
2018-05-02T02:06:31.825Z,88.39
2018-05-02T02:08:25.406Z,88.57
2018-05-02T02:09:24.845Z,88.48
2018-05-02T02:11:18.672Z,88.39
2018-05-02T02:12:18.226Z,88.76
2018-05-02T02:14:12.012Z,89.14
2018-05-02T02:15:11.540Z,88.95
2018-05-02T02:17:05.402Z,88.86
2018-05-02T02:18:05.073Z,88.67
2018-05-02T02:19:59.281Z,89.33
2018-05-02T02:20:58.859Z,89.05
2018-05-02T02:22:52.670Z,89.24
